createdAt,value
2017-09-15T00:00:41.293Z,0
2017-09-15T00:01:51.438Z,0
2017-09-15T00:03:01.561Z,0
2017-09-15T00:04:11.666Z,0
2017-09-15T00:05:22.089Z,0
2017-09-15T00:06:32.531Z,0
2017-09-15T00:07:42.950Z,0
2017-09-15T00:08:53.449Z,0
2017-09-15T00:10:03.860Z,0
2017-09-15T00:11:13.883Z,0
2017-09-15T00:12:24.300Z,0
2017-09-15T00:13:34.738Z,0
2017-09-15T00:14:45.168Z,0
2017-09-15T00:15:55.757Z,0
2017-09-15T00:17:06.523Z,0
2017-09-15T00:18:16.951Z,0
2017-09-15T00:19:27.402Z,0
2017-09-15T00:20:38.807Z,0
2017-09-15T00:21:49.236Z,0
2017-09-15T00:22:59.281Z,0
2017-09-15T00:24:09.266Z,0
2017-09-15T00:25:19.681Z,0
2017-09-15T00:26:30.264Z,0
2017-09-15T00:27:40.747Z,0
2017-09-15T00:28:51.523Z,0
2017-09-15T00:30:02.304Z,0
2017-09-15T00:31:12.768Z,0
2017-09-15T00:32:23.199Z,0
2017-09-15T00:33:33.617Z,0
2017-09-15T00:34:44.305Z,0
2017-09-15T00:35:54.756Z,0
2017-09-15T00:37:05.187Z,0
2017-09-15T00:38:15.305Z,0
2017-09-15T00:39:25.732Z,0
2017-09-15T00:40:36.404Z,0
2017-09-15T00:41:46.885Z,0
2017-09-15T00:42:57.302Z,0
2017-09-15T00:44:07.454Z,0
2017-09-15T00:45:17.891Z,0
2017-09-15T00:46:28.605Z,0
2017-09-15T00:47:38.744Z,0
2017-09-15T00:48:49.178Z,0
2017-09-15T00:49:59.341Z,0
2017-09-15T00:51:09.469Z,0
2017-09-15T00:52:20.130Z,0
2017-09-15T00:53:30.578Z,0
2017-09-15T00:54:41.012Z,0
2017-09-15T00:55:51.549Z,0
2017-09-15T00:57:01.963Z,0
2017-09-15T00:58:12.633Z,0
2017-09-15T00:59:23.067Z,0
2017-09-15T01:00:33.567Z,0
2017-09-15T01:01:43.688Z,0
2017-09-15T01:02:54.112Z,0
2017-09-15T01:04:04.338Z,0
2017-09-15T01:05:14.778Z,0
2017-09-15T01:06:25.230Z,0
2017-09-15T01:07:35.695Z,0
2017-09-15T01:08:46.347Z,0
2017-09-15T01:09:57.019Z,0
2017-09-15T01:11:07.454Z,0
2017-09-15T01:12:17.915Z,0
2017-09-15T01:13:28.359Z,0
2017-09-15T01:14:39.142Z,0
2017-09-15T01:15:49.913Z,0
2017-09-15T01:17:00.482Z,0
2017-09-15T01:18:10.938Z,0
2017-09-15T01:19:21.418Z,0
2017-09-15T01:20:31.881Z,0
2017-09-15T01:21:42.603Z,0
2017-09-15T01:22:53.050Z,0
2017-09-15T01:24:03.521Z,0
2017-09-15T01:25:13.993Z,0
2017-09-15T01:26:24.440Z,0
2017-09-15T01:27:35.115Z,0
2017-09-15T01:28:45.568Z,0
2017-09-15T01:29:56.010Z,0
2017-09-15T01:31:06.528Z,0
2017-09-15T01:32:16.970Z,0
2017-09-15T01:33:27.364Z,0
2017-09-15T01:34:37.839Z,0
2017-09-15T01:35:48.317Z,0
2017-09-15T01:36:58.744Z,0
2017-09-15T01:38:08.964Z,0
2017-09-15T01:39:19.632Z,0
2017-09-15T01:40:30.083Z,0
2017-09-15T01:41:40.567Z,0
2017-09-15T01:42:50.999Z,0
2017-09-15T01:44:01.451Z,0
2017-09-15T01:45:12.157Z,0
2017-09-15T01:46:22.581Z,0
2017-09-15T01:47:33.060Z,0
2017-09-15T01:48:43.486Z,0
2017-09-15T01:49:54.030Z,0
2017-09-15T01:51:04.931Z,0
2017-09-15T01:52:15.407Z,0
2017-09-15T01:53:25.826Z,0
2017-09-15T01:54:36.354Z,0
2017-09-15T01:55:46.797Z,0
2017-09-15T01:56:57.516Z,0
2017-09-15T01:58:08.138Z,0
2017-09-15T01:59:18.588Z,0
2017-09-15T02:00:29.023Z,0
2017-09-15T02:01:39.165Z,0
2017-09-15T02:02:49.868Z,0
2017-09-15T02:04:00.338Z,0
2017-09-15T02:05:10.786Z,0
2017-09-15T02:06:21.236Z,0
2017-09-15T02:07:31.477Z,0
2017-09-15T02:08:42.151Z,0
2017-09-15T02:09:52.642Z,0
2017-09-15T02:11:03.076Z,0
2017-09-15T02:12:13.175Z,0
2017-09-15T02:13:23.625Z,0
2017-09-15T02:14:34.359Z,0
2017-09-15T02:15:44.462Z,0
2017-09-15T02:16:54.910Z,0
2017-09-15T02:18:05.394Z,0
2017-09-15T02:19:15.833Z,0
2017-09-15T02:20:26.554Z,0
2017-09-15T02:21:37.020Z,0
2017-09-15T02:22:47.433Z,0
2017-09-15T02:23:57.890Z,0
2017-09-15T02:25:08.448Z,0
2017-09-15T02:26:18.829Z,0
2017-09-15T02:27:28.896Z,0
2017-09-15T02:28:39.018Z,0
2017-09-15T02:29:48.814Z,0
2017-09-15T02:30:59.260Z,0
2017-09-15T02:32:09.934Z,0
2017-09-15T02:33:20.396Z,0
2017-09-15T02:34:30.844Z,0
2017-09-15T02:35:41.294Z,0
2017-09-15T02:36:51.772Z,0
2017-09-15T02:38:02.485Z,0
2017-09-15T02:39:12.958Z,0
2017-09-15T02:40:23.484Z,0
2017-09-15T02:41:34.052Z,0
2017-09-15T02:42:44.473Z,0
2017-09-15T02:43:55.162Z,0
2017-09-15T02:45:05.609Z,0
2017-09-15T02:46:15.731Z,0
2017-09-15T02:47:26.163Z,0
2017-09-15T02:48:36.316Z,0
2017-09-15T02:49:47.275Z,0
2017-09-15T02:50:57.708Z,0
2017-09-15T02:52:08.141Z,0
2017-09-15T02:53:18.572Z,0
2017-09-15T02:54:29.189Z,0
2017-09-15T02:55:39.861Z,0
2017-09-15T02:56:50.449Z,0
2017-09-15T02:58:00.941Z,0
2017-09-15T02:59:11.683Z,0
2017-09-15T03:00:22.135Z,0
2017-09-15T03:01:32.754Z,0
2017-09-15T03:02:43.195Z,0
2017-09-15T03:03:53.665Z,0
2017-09-15T03:05:03.911Z,0
2017-09-15T03:06:14.437Z,0
2017-09-15T03:07:25.111Z,0
2017-09-15T03:08:35.632Z,0
2017-09-15T03:09:46.127Z,0
2017-09-15T03:10:56.550Z,0
2017-09-15T03:12:07.233Z,0
2017-09-15T03:13:17.957Z,0
2017-09-15T03:14:28.521Z,0
2017-09-15T03:15:39.188Z,0
2017-09-15T03:16:49.598Z,0
2017-09-15T03:18:00.201Z,0
2017-09-15T03:19:10.941Z,0
2017-09-15T03:20:21.588Z,0
2017-09-15T03:21:32.014Z,0
2017-09-15T03:22:42.468Z,0
2017-09-15T03:23:52.918Z,0
2017-09-15T03:25:03.645Z,0
2017-09-15T03:26:14.087Z,0
2017-09-15T03:27:24.521Z,0
2017-09-15T03:28:34.957Z,0
2017-09-15T03:29:45.444Z,0
2017-09-15T03:30:56.141Z,0
2017-09-15T03:32:06.714Z,0
2017-09-15T03:33:16.940Z,0
2017-09-15T03:34:26.920Z,0
2017-09-15T03:35:38.346Z,0
2017-09-15T03:36:49.051Z,0
2017-09-15T03:37:59.169Z,0
2017-09-15T03:39:09.592Z,0
2017-09-15T03:40:20.244Z,0
2017-09-15T03:41:30.479Z,0
2017-09-15T03:42:41.204Z,0
2017-09-15T03:43:51.665Z,0
2017-09-15T03:45:02.197Z,0
2017-09-15T03:46:12.819Z,0
2017-09-15T03:47:24.237Z,0
2017-09-15T03:48:34.902Z,0
2017-09-15T03:49:45.398Z,0
2017-09-15T03:50:55.823Z,0
2017-09-15T03:52:06.299Z,0
2017-09-15T03:53:16.951Z,0
2017-09-15T03:54:27.774Z,0
2017-09-15T03:55:37.957Z,0
2017-09-15T03:56:48.387Z,0
2017-09-15T03:57:58.946Z,0
2017-09-15T03:59:09.364Z,0
2017-09-15T04:00:19.459Z,0
2017-09-15T04:01:29.966Z,0
2017-09-15T04:02:40.085Z,0
2017-09-15T04:03:50.219Z,0
2017-09-15T04:05:00.663Z,0
2017-09-15T04:06:11.443Z,0
2017-09-15T04:07:21.926Z,0
2017-09-15T04:08:32.388Z,0
2017-09-15T04:09:42.823Z,0
2017-09-15T04:10:52.993Z,0
2017-09-15T04:12:03.670Z,0
2017-09-15T04:13:14.106Z,0
2017-09-15T04:14:24.252Z,0
2017-09-15T04:15:34.924Z,0
2017-09-15T04:16:45.402Z,0
2017-09-15T04:17:55.762Z,0
2017-09-15T04:19:05.898Z,0
2017-09-15T04:20:16.345Z,0
2017-09-15T04:21:26.771Z,0
2017-09-15T04:22:37.208Z,0
2017-09-15T04:23:47.951Z,0
2017-09-15T04:24:58.445Z,0
2017-09-15T04:26:08.880Z,0
2017-09-15T04:27:19.388Z,0
2017-09-15T04:28:30.492Z,0
2017-09-15T04:29:40.883Z,0
2017-09-15T04:30:51.319Z,0
2017-09-15T04:32:01.426Z,0
2017-09-15T04:33:11.934Z,0
2017-09-15T04:34:22.384Z,0
2017-09-15T04:35:33.056Z,0
2017-09-15T04:36:43.490Z,0
2017-09-15T04:37:53.949Z,0
2017-09-15T04:39:04.110Z,0
2017-09-15T04:40:14.708Z,0
2017-09-15T04:41:25.401Z,5
2017-09-15T04:42:35.844Z,5
2017-09-15T04:43:46.366Z,5
2017-09-15T04:44:56.736Z,5
2017-09-15T04:46:07.255Z,5
2017-09-15T04:47:17.992Z,5
2017-09-15T04:48:28.128Z,5
2017-09-15T04:49:38.553Z,10
2017-09-15T04:50:48.983Z,10
2017-09-15T04:51:59.433Z,10
2017-09-15T04:53:09.812Z,10
2017-09-15T04:54:20.251Z,15
2017-09-15T04:55:30.693Z,15
2017-09-15T04:56:41.124Z,15
2017-09-15T04:57:51.639Z,15
2017-09-15T04:59:02.320Z,20
2017-09-15T05:00:12.456Z,20
2017-09-15T05:01:22.871Z,20
2017-09-15T05:02:33.362Z,25
2017-09-15T05:03:43.816Z,25
2017-09-15T05:04:54.703Z,25
2017-09-15T05:06:05.133Z,30
2017-09-15T05:07:14.985Z,30
2017-09-15T05:08:25.491Z,30
2017-09-15T05:09:35.910Z,35
2017-09-15T05:10:46.593Z,35
2017-09-15T05:11:57.032Z,35
2017-09-15T05:13:07.458Z,40
2017-09-15T05:14:17.578Z,40
2017-09-15T05:15:27.991Z,45
2017-09-15T05:16:38.676Z,45
2017-09-15T05:17:49.182Z,45
2017-09-15T05:18:59.595Z,50
2017-09-15T05:20:10.218Z,50
2017-09-15T05:21:20.675Z,55
2017-09-15T05:22:31.482Z,55
2017-09-15T05:23:41.914Z,55
2017-09-15T05:24:52.415Z,60
2017-09-15T05:26:02.836Z,60
2017-09-15T05:27:13.386Z,65
2017-09-15T05:28:24.168Z,65
2017-09-15T05:29:34.707Z,65
2017-09-15T05:30:45.127Z,70
2017-09-15T05:31:55.665Z,65
2017-09-15T05:33:06.154Z,70
2017-09-15T05:34:17.438Z,70
2017-09-15T05:35:27.889Z,75
2017-09-15T05:36:38.313Z,75
2017-09-15T05:37:48.777Z,80
2017-09-15T05:38:59.202Z,80
2017-09-15T05:40:09.902Z,85
2017-09-15T05:41:20.374Z,85
2017-09-15T05:42:30.786Z,85
2017-09-15T05:43:41.370Z,90
2017-09-15T05:44:51.801Z,90
2017-09-15T05:46:02.557Z,95
2017-09-15T05:47:12.679Z,95
2017-09-15T05:48:22.837Z,95
2017-09-15T05:49:32.957Z,100
2017-09-15T05:50:43.396Z,100
2017-09-15T05:51:54.084Z,105
2017-09-15T05:53:04.071Z,105
2017-09-15T05:54:14.339Z,105
2017-09-15T05:55:24.776Z,105
2017-09-15T05:56:35.252Z,105
2017-09-15T05:57:46.168Z,105
2017-09-15T05:58:56.617Z,110
2017-09-15T06:00:07.265Z,110
2017-09-15T06:01:17.727Z,110
2017-09-15T06:02:28.079Z,110
2017-09-15T06:03:38.760Z,110
2017-09-15T06:04:49.287Z,115
2017-09-15T06:05:59.795Z,115
2017-09-15T06:07:09.915Z,115
2017-09-15T06:08:20.413Z,115
2017-09-15T06:09:30.786Z,120
2017-09-15T06:10:41.451Z,120
2017-09-15T06:11:51.578Z,120
2017-09-15T06:13:02.018Z,120
2017-09-15T06:14:12.454Z,125
2017-09-15T06:15:23.204Z,125
2017-09-15T06:16:33.647Z,125
2017-09-15T06:17:43.765Z,125
2017-09-15T06:18:54.214Z,125
2017-09-15T06:20:04.320Z,130
2017-09-15T06:21:15.006Z,130
2017-09-15T06:22:25.566Z,130
2017-09-15T06:23:36.027Z,135
2017-09-15T06:24:46.493Z,135
2017-09-15T06:25:57.604Z,135
2017-09-15T06:27:08.312Z,135
2017-09-15T06:28:18.732Z,135
2017-09-15T06:29:29.250Z,140
2017-09-15T06:30:39.672Z,140
2017-09-15T06:31:50.103Z,140
2017-09-15T06:33:00.952Z,140
2017-09-15T06:34:11.410Z,145
2017-09-15T06:35:21.915Z,145
2017-09-15T06:36:32.337Z,150
2017-09-15T06:37:42.453Z,145
2017-09-15T06:38:52.828Z,145
2017-09-15T06:40:03.261Z,150
2017-09-15T06:41:13.671Z,150
2017-09-15T06:42:24.094Z,150
2017-09-15T06:43:34.517Z,155
2017-09-15T06:44:45.216Z,155
2017-09-15T06:45:55.731Z,155
2017-09-15T06:47:05.865Z,155
2017-09-15T06:48:16.001Z,155
2017-09-15T06:49:26.641Z,160
2017-09-15T06:50:37.328Z,160
2017-09-15T06:51:47.793Z,160
2017-09-15T06:52:58.247Z,165
2017-09-15T06:54:08.732Z,165
2017-09-15T06:55:19.165Z,165
2017-09-15T06:56:30.246Z,170
2017-09-15T06:57:40.385Z,170
2017-09-15T06:58:50.813Z,175
2017-09-15T07:00:00.966Z,175
2017-09-15T07:01:11.395Z,180
2017-09-15T07:02:21.441Z,180
2017-09-15T07:03:32.102Z,185
2017-09-15T07:04:42.559Z,190
2017-09-15T07:05:52.981Z,195
2017-09-15T07:07:03.402Z,200
2017-09-15T07:08:14.069Z,200
2017-09-15T07:09:24.533Z,205
2017-09-15T07:10:34.998Z,210
2017-09-15T07:11:45.169Z,215
2017-09-15T07:12:55.291Z,215
2017-09-15T07:14:05.647Z,220
2017-09-15T07:15:16.081Z,220
2017-09-15T07:16:26.512Z,220
2017-09-15T07:17:36.956Z,225
2017-09-15T07:18:47.399Z,230
2017-09-15T07:19:58.103Z,235
2017-09-15T07:21:08.087Z,235
2017-09-15T07:22:18.727Z,240
2017-09-15T07:23:29.245Z,245
2017-09-15T07:24:39.670Z,250
2017-09-15T07:25:50.382Z,260
2017-09-15T07:27:01.120Z,275
2017-09-15T07:28:11.564Z,280
2017-09-15T07:29:22.008Z,270
2017-09-15T07:30:32.513Z,290
2017-09-15T07:31:43.202Z,285
2017-09-15T07:32:53.505Z,280
2017-09-15T07:34:03.962Z,270
2017-09-15T07:35:14.432Z,280
2017-09-15T07:36:24.872Z,280
2017-09-15T07:37:35.594Z,320
2017-09-15T07:38:46.067Z,250
2017-09-15T07:39:56.551Z,270
2017-09-15T07:41:06.695Z,300
2017-09-15T07:42:17.219Z,295
2017-09-15T07:43:27.900Z,295
2017-09-15T07:44:37.901Z,315
2017-09-15T07:45:48.420Z,400
2017-09-15T07:46:59.071Z,480
2017-09-15T07:48:09.493Z,445
2017-09-15T07:49:20.190Z,395
2017-09-15T07:50:30.639Z,355
2017-09-15T07:51:41.078Z,345
2017-09-15T07:52:51.670Z,295
2017-09-15T07:54:02.342Z,355
2017-09-15T07:55:12.711Z,345
2017-09-15T07:56:22.829Z,340
2017-09-15T07:57:33.273Z,355
2017-09-15T07:58:43.953Z,350
2017-09-15T07:59:54.398Z,375
2017-09-15T08:01:05.309Z,370
2017-09-15T08:02:15.849Z,375
2017-09-15T08:03:26.313Z,415
2017-09-15T08:04:36.775Z,410
2017-09-15T08:05:47.205Z,480
2017-09-15T08:06:57.577Z,700
2017-09-15T08:08:08.034Z,1185
2017-09-15T08:09:18.476Z,1485
2017-09-15T08:10:28.995Z,1605
2017-09-15T08:11:39.503Z,1655
2017-09-15T08:12:50.487Z,1650
2017-09-15T08:14:00.907Z,1680
2017-09-15T08:15:11.601Z,1820
2017-09-15T08:16:22.106Z,1870
2017-09-15T08:17:32.358Z,880
2017-09-15T08:18:43.039Z,635
2017-09-15T08:19:53.475Z,1180
2017-09-15T08:21:03.913Z,645
2017-09-15T08:22:14.414Z,685
2017-09-15T08:23:24.840Z,1550
2017-09-15T08:24:35.548Z,1660
2017-09-15T08:25:46.244Z,625
2017-09-15T08:26:56.760Z,500
2017-09-15T08:28:07.222Z,1580
2017-09-15T08:29:17.847Z,870
2017-09-15T08:30:28.684Z,970
2017-09-15T08:31:39.156Z,500
2017-09-15T08:32:49.606Z,530
2017-09-15T08:34:00.079Z,370
2017-09-15T08:35:10.221Z,435
2017-09-15T08:36:20.925Z,1285
2017-09-15T08:37:31.372Z,475
2017-09-15T08:38:42.019Z,560
2017-09-15T08:39:52.453Z,550
2017-09-15T08:41:04.056Z,555
2017-09-15T08:42:14.756Z,2545
2017-09-15T08:43:25.211Z,1390
2017-09-15T08:44:35.641Z,460
2017-09-15T08:45:46.096Z,575
2017-09-15T08:46:56.719Z,495
2017-09-15T08:48:07.414Z,665
2017-09-15T08:49:17.893Z,2600
2017-09-15T08:50:28.043Z,735
2017-09-15T08:51:39.128Z,1420
2017-09-15T08:52:49.580Z,2520
2017-09-15T08:54:00.317Z,715
2017-09-15T08:55:10.773Z,935
2017-09-15T08:56:21.418Z,695
2017-09-15T08:57:31.920Z,515
2017-09-15T08:58:42.144Z,1490
2017-09-15T08:59:52.576Z,380
2017-09-15T09:01:03.030Z,385
2017-09-15T09:02:13.463Z,390
2017-09-15T09:03:24.011Z,330
2017-09-15T09:04:34.455Z,300
2017-09-15T09:05:45.144Z,250
2017-09-15T09:06:55.630Z,210
2017-09-15T09:08:05.791Z,210
2017-09-15T09:09:16.230Z,225
2017-09-15T09:10:26.792Z,230
2017-09-15T09:11:37.498Z,250
2017-09-15T09:12:47.942Z,270
2017-09-15T09:13:58.090Z,315
2017-09-15T09:15:08.566Z,375
2017-09-15T09:16:18.588Z,425
2017-09-15T09:17:28.837Z,1580
2017-09-15T09:18:39.009Z,640
2017-09-15T09:19:49.510Z,540
2017-09-15T09:20:59.967Z,570
2017-09-15T09:22:10.471Z,605
2017-09-15T09:23:21.399Z,1190
2017-09-15T09:24:31.870Z,575
2017-09-15T09:25:42.294Z,605
2017-09-15T09:26:52.842Z,630
2017-09-15T09:28:04.255Z,1715
2017-09-15T09:29:14.961Z,1080
2017-09-15T09:30:25.492Z,975
2017-09-15T09:31:35.965Z,2135
2017-09-15T09:32:46.416Z,1355
2017-09-15T09:33:56.230Z,635
2017-09-15T09:35:06.928Z,1320
2017-09-15T09:36:17.407Z,3050
2017-09-15T09:37:27.860Z,1475
2017-09-15T09:38:38.318Z,2855
2017-09-15T09:39:48.786Z,2850
2017-09-15T09:40:59.488Z,1035
2017-09-15T09:42:10.022Z,2210
2017-09-15T09:43:20.514Z,2945
2017-09-15T09:44:30.993Z,2975
2017-09-15T09:45:41.445Z,1475
2017-09-15T09:46:52.113Z,870
2017-09-15T09:48:02.647Z,820
2017-09-15T09:49:13.100Z,500
2017-09-15T09:50:23.271Z,1000
2017-09-15T09:51:33.751Z,590
2017-09-15T09:52:44.529Z,3085
2017-09-15T09:53:54.969Z,810
2017-09-15T09:55:05.460Z,1295
2017-09-15T09:56:15.894Z,3145
2017-09-15T09:57:26.064Z,3285
2017-09-15T09:58:36.480Z,3305
2017-09-15T09:59:46.780Z,3125
2017-09-15T10:00:57.236Z,2835
2017-09-15T10:02:07.765Z,2745
2017-09-15T10:03:18.201Z,2185
2017-09-15T10:04:28.897Z,2045
2017-09-15T10:05:39.358Z,535
2017-09-15T10:06:49.847Z,470
2017-09-15T10:08:00.357Z,425
2017-09-15T10:09:11.083Z,455
2017-09-15T10:10:21.777Z,470
2017-09-15T10:11:32.216Z,1260
2017-09-15T10:12:42.664Z,540
2017-09-15T10:13:53.104Z,485
2017-09-15T10:15:03.656Z,2640
2017-09-15T10:16:14.419Z,3235
2017-09-15T10:17:25.009Z,1295
2017-09-15T10:18:35.480Z,735
2017-09-15T10:19:46.043Z,3015
2017-09-15T10:20:56.491Z,3075
2017-09-15T10:22:07.193Z,725
2017-09-15T10:23:17.340Z,600
2017-09-15T10:24:27.837Z,565
2017-09-15T10:25:37.838Z,665
2017-09-15T10:26:48.285Z,510
2017-09-15T10:27:59.055Z,545
2017-09-15T10:29:09.235Z,3075
2017-09-15T10:30:19.692Z,3100
2017-09-15T10:31:30.152Z,960
2017-09-15T10:32:40.653Z,785
2017-09-15T10:33:51.378Z,545
2017-09-15T10:35:01.829Z,465
2017-09-15T10:36:12.263Z,645
2017-09-15T10:37:22.785Z,855
2017-09-15T10:38:33.299Z,3225
2017-09-15T10:39:43.718Z,1020
2017-09-15T10:40:54.157Z,3125
2017-09-15T10:42:04.373Z,2985
2017-09-15T10:43:15.032Z,2055
2017-09-15T10:44:25.516Z,3010
2017-09-15T10:45:36.344Z,2380
2017-09-15T10:46:46.811Z,2550
2017-09-15T10:47:57.252Z,3525
2017-09-15T10:49:07.816Z,1885
2017-09-15T10:50:17.980Z,3420
2017-09-15T10:51:28.728Z,2365
2017-09-15T10:52:39.164Z,3275
2017-09-15T10:53:49.642Z,1845
2017-09-15T10:55:00.093Z,1250
2017-09-15T10:56:10.559Z,1665
2017-09-15T10:57:21.297Z,1180
2017-09-15T10:58:31.771Z,3150
2017-09-15T10:59:42.310Z,945
2017-09-15T11:00:52.797Z,915
2017-09-15T11:02:03.310Z,3350
2017-09-15T11:03:14.036Z,1990
2017-09-15T11:04:24.524Z,565
2017-09-15T11:05:35.053Z,490
2017-09-15T11:06:46.196Z,880
2017-09-15T11:07:56.671Z,555
2017-09-15T11:09:07.396Z,480
2017-09-15T11:10:17.890Z,435
2017-09-15T11:11:28.452Z,490
2017-09-15T11:12:38.468Z,515
2017-09-15T11:13:48.611Z,495
2017-09-15T11:14:59.341Z,415
2017-09-15T11:16:09.788Z,365
2017-09-15T11:17:20.229Z,340
2017-09-15T11:18:30.709Z,315
2017-09-15T11:19:42.130Z,330
2017-09-15T11:20:52.553Z,365
2017-09-15T11:22:03.279Z,410
2017-09-15T11:23:13.418Z,510
2017-09-15T11:24:23.848Z,640
2017-09-15T11:25:33.729Z,950
2017-09-15T11:26:44.121Z,3285
2017-09-15T11:27:54.248Z,3150
2017-09-15T11:29:04.901Z,860
2017-09-15T11:30:14.886Z,685
2017-09-15T11:31:25.571Z,540
2017-09-15T11:32:35.986Z,415
2017-09-15T11:33:46.512Z,370
2017-09-15T11:34:56.974Z,360
2017-09-15T11:36:07.169Z,380
2017-09-15T11:37:17.653Z,400
2017-09-15T11:38:28.444Z,420
2017-09-15T11:39:38.945Z,500
2017-09-15T11:40:49.428Z,2875
2017-09-15T11:42:00.023Z,2765
2017-09-15T11:43:10.223Z,3045
2017-09-15T11:44:22.145Z,3185
2017-09-15T11:45:32.357Z,3005
2017-09-15T11:46:42.804Z,2790
2017-09-15T11:47:53.247Z,2460
2017-09-15T11:49:03.283Z,540
2017-09-15T11:50:14.095Z,385
2017-09-15T11:51:24.571Z,270
2017-09-15T11:52:34.718Z,220
2017-09-15T11:53:44.716Z,210
2017-09-15T11:54:55.182Z,210
2017-09-15T11:56:05.921Z,225
2017-09-15T11:57:16.433Z,250
2017-09-15T11:58:26.998Z,285
2017-09-15T11:59:37.164Z,275
2017-09-15T12:00:47.600Z,260
2017-09-15T12:01:58.343Z,245
2017-09-15T12:03:08.785Z,210
2017-09-15T12:04:19.228Z,210
2017-09-15T12:05:29.732Z,225
2017-09-15T12:06:40.219Z,260
2017-09-15T12:07:50.621Z,310
2017-09-15T12:09:01.067Z,385
2017-09-15T12:10:11.728Z,460
2017-09-15T12:11:22.208Z,540
2017-09-15T12:12:32.729Z,750
2017-09-15T12:13:43.477Z,1285
2017-09-15T12:14:54.012Z,770
2017-09-15T12:16:04.456Z,495
2017-09-15T12:17:14.950Z,435
2017-09-15T12:18:25.449Z,395
2017-09-15T12:19:36.146Z,350
2017-09-15T12:20:46.597Z,305
2017-09-15T12:21:57.048Z,270
2017-09-15T12:23:07.253Z,240
2017-09-15T12:24:17.398Z,220
2017-09-15T12:25:29.074Z,205
2017-09-15T12:26:39.573Z,195
2017-09-15T12:27:50.017Z,190
2017-09-15T12:29:00.470Z,190
2017-09-15T12:30:10.944Z,190
2017-09-15T12:31:21.635Z,195
2017-09-15T12:32:32.069Z,195
2017-09-15T12:33:42.565Z,200
2017-09-15T12:34:53.030Z,205
2017-09-15T12:36:03.093Z,225
2017-09-15T12:37:13.794Z,245
2017-09-15T12:38:24.272Z,255
2017-09-15T12:39:34.722Z,230
2017-09-15T12:40:44.849Z,220
2017-09-15T12:41:55.325Z,210
2017-09-15T12:43:07.014Z,195
2017-09-15T12:44:17.463Z,180
2017-09-15T12:45:27.912Z,155
2017-09-15T12:46:38.395Z,140
2017-09-15T12:47:48.858Z,135
2017-09-15T12:48:59.537Z,130
2017-09-15T12:50:09.676Z,130
2017-09-15T12:51:20.350Z,140
2017-09-15T12:52:30.585Z,145
2017-09-15T12:53:41.028Z,155
2017-09-15T12:54:51.724Z,155
2017-09-15T12:56:02.166Z,165
2017-09-15T12:57:12.617Z,175
2017-09-15T12:58:23.127Z,190
2017-09-15T12:59:33.904Z,185
2017-09-15T13:00:44.298Z,165
2017-09-15T13:01:55.110Z,160
2017-09-15T13:03:05.588Z,175
2017-09-15T13:04:16.056Z,185
2017-09-15T13:05:26.512Z,190
2017-09-15T13:06:37.237Z,195
2017-09-15T13:07:47.775Z,200
2017-09-15T13:08:57.943Z,205
2017-09-15T13:10:08.384Z,210
2017-09-15T13:11:18.422Z,210
2017-09-15T13:12:29.141Z,220
2017-09-15T13:13:39.610Z,230
2017-09-15T13:14:49.799Z,240
2017-09-15T13:16:00.277Z,240
2017-09-15T13:17:10.711Z,235
2017-09-15T13:18:21.139Z,220
2017-09-15T13:19:31.615Z,215
2017-09-15T13:20:42.148Z,210
2017-09-15T13:21:52.604Z,210
2017-09-15T13:23:03.130Z,210
2017-09-15T13:24:13.912Z,200
2017-09-15T13:25:24.362Z,185
2017-09-15T13:26:34.804Z,170
2017-09-15T13:27:45.495Z,165
2017-09-15T13:28:56.056Z,150
2017-09-15T13:30:06.873Z,135
2017-09-15T13:31:17.369Z,130
2017-09-15T13:32:27.799Z,125
2017-09-15T13:33:38.276Z,135
2017-09-15T13:34:48.877Z,150
2017-09-15T13:35:59.889Z,165
2017-09-15T13:37:10.337Z,170
2017-09-15T13:38:21.022Z,175
2017-09-15T13:39:31.480Z,200
2017-09-15T13:40:41.910Z,230
2017-09-15T13:41:52.646Z,250
2017-09-15T13:43:03.156Z,255
2017-09-15T13:44:13.289Z,245
2017-09-15T13:45:23.728Z,265
2017-09-15T13:46:34.017Z,260
2017-09-15T13:47:44.720Z,270
2017-09-15T13:48:54.873Z,270
2017-09-15T13:50:05.413Z,260
2017-09-15T13:51:15.881Z,245
2017-09-15T13:52:26.387Z,250
2017-09-15T13:53:37.183Z,365
2017-09-15T13:54:47.695Z,320
2017-09-15T13:55:58.193Z,340
2017-09-15T13:57:08.677Z,345
2017-09-15T13:58:18.840Z,370
2017-09-15T13:59:29.123Z,395
2017-09-15T14:00:39.650Z,470
2017-09-15T14:01:50.117Z,440
2017-09-15T14:03:00.552Z,425
2017-09-15T14:04:11.102Z,400
2017-09-15T14:05:21.844Z,370
2017-09-15T14:06:31.743Z,340
2017-09-15T14:07:42.258Z,315
2017-09-15T14:08:52.384Z,300
2017-09-15T14:10:02.827Z,295
2017-09-15T14:11:13.520Z,320
2017-09-15T14:12:24.057Z,330
2017-09-15T14:13:34.539Z,330
2017-09-15T14:14:44.714Z,320
2017-09-15T14:15:54.901Z,325
2017-09-15T14:17:05.606Z,340
2017-09-15T14:18:16.073Z,350
2017-09-15T14:19:26.728Z,350
2017-09-15T14:20:37.198Z,355
2017-09-15T14:21:47.791Z,365
2017-09-15T14:22:58.517Z,375
2017-09-15T14:24:08.955Z,390
2017-09-15T14:25:19.440Z,395
2017-09-15T14:26:29.899Z,395
2017-09-15T14:27:40.073Z,395
2017-09-15T14:28:50.788Z,400
2017-09-15T14:30:00.912Z,430
2017-09-15T14:31:11.051Z,515
2017-09-15T14:32:21.497Z,580
2017-09-15T14:33:32.014Z,575
2017-09-15T14:34:42.795Z,575
2017-09-15T14:35:53.297Z,575
2017-09-15T14:37:03.804Z,560
2017-09-15T14:38:14.346Z,545
2017-09-15T14:39:24.793Z,565
2017-09-15T14:40:35.541Z,550
2017-09-15T14:41:45.693Z,585
2017-09-15T14:42:56.195Z,865
2017-09-15T14:44:06.665Z,965
2017-09-15T14:45:17.313Z,975
2017-09-15T14:46:27.780Z,865
2017-09-15T14:47:37.950Z,455
2017-09-15T14:48:48.736Z,455
2017-09-15T14:49:58.804Z,445
2017-09-15T14:51:09.373Z,545
2017-09-15T14:52:20.138Z,460
2017-09-15T14:53:30.635Z,455
2017-09-15T14:54:41.142Z,390
2017-09-15T14:55:51.269Z,370
2017-09-15T14:57:01.779Z,345
2017-09-15T14:58:12.525Z,330
2017-09-15T14:59:23.020Z,335
2017-09-15T15:00:33.484Z,310
2017-09-15T15:01:44.000Z,315
2017-09-15T15:02:54.372Z,335
2017-09-15T15:04:05.084Z,350
2017-09-15T15:05:15.559Z,365
2017-09-15T15:06:26.124Z,355
2017-09-15T15:07:36.725Z,385
2017-09-15T15:08:47.179Z,530
2017-09-15T15:09:57.125Z,385
2017-09-15T15:11:07.583Z,365
2017-09-15T15:12:18.067Z,365
2017-09-15T15:13:28.580Z,375
2017-09-15T15:14:39.149Z,365
2017-09-15T15:15:49.895Z,335
2017-09-15T15:17:00.441Z,310
2017-09-15T15:18:10.905Z,290
2017-09-15T15:19:20.913Z,275
2017-09-15T15:20:31.439Z,270
2017-09-15T15:21:42.296Z,260
2017-09-15T15:22:52.763Z,250
2017-09-15T15:24:03.245Z,240
2017-09-15T15:25:13.767Z,230
2017-09-15T15:26:24.258Z,220
2017-09-15T15:27:34.616Z,220
2017-09-15T15:28:44.760Z,215
2017-09-15T15:29:55.232Z,210
2017-09-15T15:31:05.391Z,210
2017-09-15T15:32:15.977Z,215
2017-09-15T15:33:26.723Z,215
2017-09-15T15:34:37.299Z,215
2017-09-15T15:35:47.889Z,215
2017-09-15T15:36:58.369Z,210
2017-09-15T15:38:08.948Z,205
2017-09-15T15:39:19.663Z,200
2017-09-15T15:40:29.749Z,200
2017-09-15T15:41:40.222Z,200
2017-09-15T15:42:50.729Z,205
2017-09-15T15:44:01.186Z,215
2017-09-15T15:45:11.349Z,220
2017-09-15T15:46:21.887Z,230
2017-09-15T15:47:32.113Z,245
2017-09-15T15:48:42.571Z,425
2017-09-15T15:49:52.961Z,575
2017-09-15T15:51:03.749Z,505
2017-09-15T15:52:14.194Z,805
2017-09-15T15:53:24.695Z,705
2017-09-15T15:54:35.171Z,715
2017-09-15T15:55:45.656Z,455
2017-09-15T15:56:56.375Z,290
2017-09-15T15:58:06.846Z,670
2017-09-15T15:59:17.320Z,700
2017-09-15T16:00:27.818Z,635
2017-09-15T16:01:38.333Z,265
2017-09-15T16:02:49.046Z,255
2017-09-15T16:03:59.549Z,295
2017-09-15T16:05:10.091Z,295
2017-09-15T16:06:20.267Z,285
2017-09-15T16:07:30.848Z,260
2017-09-15T16:08:41.370Z,245
2017-09-15T16:09:52.085Z,230
2017-09-15T16:11:02.539Z,250
2017-09-15T16:12:13.047Z,240
2017-09-15T16:13:23.522Z,215
2017-09-15T16:14:34.224Z,200
2017-09-15T16:15:44.688Z,180
2017-09-15T16:16:55.142Z,165
2017-09-15T16:18:05.819Z,160
2017-09-15T16:19:15.987Z,145
2017-09-15T16:20:26.819Z,140
2017-09-15T16:21:37.369Z,135
2017-09-15T16:22:48.060Z,135
2017-09-15T16:23:58.785Z,130
2017-09-15T16:25:09.276Z,125
2017-09-15T16:26:20.120Z,120
2017-09-15T16:27:30.596Z,115
2017-09-15T16:28:40.501Z,115